createdAt,value
2019-05-20T00:00:44.371Z,94.10
2019-05-20T00:03:13.854Z,94.30
2019-05-20T00:05:47.278Z,94.40
2019-05-20T00:08:16.886Z,94.40
2019-05-20T00:10:46.610Z,94.30
2019-05-20T00:13:16.019Z,94.20
2019-05-20T00:15:45.466Z,94.30
2019-05-20T00:18:14.934Z,94.30
2019-05-20T00:20:44.410Z,94.30
2019-05-20T00:23:13.846Z,94.30
2019-05-20T00:25:43.339Z,94.10
2019-05-20T00:28:14.222Z,94.40
2019-05-20T00:30:45.062Z,94.50
2019-05-20T00:33:14.627Z,94.20
2019-05-20T00:35:44.161Z,94.20
2019-05-20T00:38:13.642Z,94.20
2019-05-20T00:40:43.120Z,94.50
2019-05-20T00:43:12.554Z,93.90
2019-05-20T00:45:43.124Z,93.90
2019-05-20T00:48:12.573Z,93.50
2019-05-20T00:50:42.036Z,93.80
2019-05-20T00:53:11.483Z,93.90
2019-05-20T00:55:42.010Z,93.90
2019-05-20T00:58:11.653Z,93.90
2019-05-20T01:00:41.200Z,93.80
2019-05-20T01:03:10.651Z,93.70
2019-05-20T01:05:40.106Z,94.20
2019-05-20T01:08:09.648Z,93.90
2019-05-20T01:10:39.168Z,93.90
2019-05-20T01:13:08.623Z,94.00
2019-05-20T01:15:38.082Z,94.00
2019-05-20T01:18:07.560Z,93.90
2019-05-20T01:20:37.041Z,94.00
2019-05-20T01:23:06.444Z,94.20
2019-05-20T01:25:35.919Z,94.10
2019-05-20T01:28:05.355Z,94.00
2019-05-20T01:30:34.899Z,93.80
2019-05-20T01:33:13.294Z,93.80
2019-05-20T01:35:35.464Z,93.70
2019-05-20T01:38:12.011Z,93.60
2019-05-20T01:40:41.541Z,93.70
2019-05-20T01:43:12.551Z,93.40
2019-05-20T01:45:42.007Z,93.30
2019-05-20T01:48:11.468Z,93.00
2019-05-20T01:50:40.944Z,93.20
2019-05-20T01:53:11.476Z,93.20
2019-05-20T01:55:42.054Z,93.20
2019-05-20T01:58:11.508Z,93.30
2019-05-20T02:00:57.500Z,93.00
2019-05-20T02:03:31.582Z,93.00
2019-05-20T02:06:10.832Z,93.10
2019-05-20T02:08:40.287Z,93.20
2019-05-20T02:11:09.822Z,93.10
2019-05-20T02:14:05.683Z,92.90
2019-05-20T02:16:35.146Z,92.90
2019-05-20T02:19:04.729Z,92.60
2019-05-20T02:21:34.353Z,92.50
2019-05-20T02:24:03.814Z,92.50
2019-05-20T02:26:36.911Z,92.50
2019-05-20T02:29:06.529Z,92.40
2019-05-20T02:31:35.963Z,92.60
2019-05-20T02:34:05.453Z,92.60
2019-05-20T02:36:34.879Z,92.70
2019-05-20T02:39:06.597Z,92.60
2019-05-20T02:41:36.233Z,92.70
2019-05-20T02:44:09.455Z,92.60
2019-05-20T02:46:38.935Z,92.60
2019-05-20T02:49:08.405Z,92.70
2019-05-20T02:51:37.831Z,92.90
2019-05-20T02:54:07.309Z,93.00
2019-05-20T02:56:36.692Z,93.00
2019-05-20T02:59:06.139Z,92.90
2019-05-20T03:01:35.602Z,92.90
2019-05-20T03:04:12.208Z,93.00
2019-05-20T03:06:38.825Z,92.70
2019-05-20T03:09:11.881Z,93.10
2019-05-20T03:11:39.363Z,92.70
2019-05-20T03:14:08.886Z,92.60
2019-05-20T03:16:38.331Z,92.90
2019-05-20T03:19:07.812Z,92.80
2019-05-20T03:21:37.272Z,92.90
2019-05-20T03:24:19.023Z,92.80
2019-05-20T03:26:49.511Z,92.90
2019-05-20T03:29:18.984Z,92.90
2019-05-20T03:31:48.443Z,93.00
2019-05-20T03:34:43.903Z,92.90
2019-05-20T03:36:50.597Z,93.00
2019-05-20T03:39:20.072Z,93.00
2019-05-20T03:42:01.834Z,93.20
2019-05-20T03:44:31.272Z,93.20
2019-05-20T03:47:00.749Z,93.30
2019-05-20T03:49:30.203Z,93.60
2019-05-20T03:51:59.657Z,93.50
2019-05-20T03:54:29.130Z,93.80
2019-05-20T03:56:58.588Z,93.80
2019-05-20T03:59:28.040Z,93.80
2019-05-20T04:01:57.514Z,93.80
2019-05-20T04:04:26.971Z,93.80
2019-05-20T04:06:56.431Z,93.70
2019-05-20T04:09:26.004Z,93.90
2019-05-20T04:11:55.452Z,94.00
2019-05-20T04:14:24.911Z,94.20
2019-05-20T04:16:55.457Z,94.10
2019-05-20T04:19:24.901Z,93.80
2019-05-20T04:21:54.357Z,93.80
2019-05-20T04:24:23.828Z,93.70
2019-05-20T04:26:56.354Z,93.70
2019-05-20T04:29:25.910Z,93.70
2019-05-20T04:31:55.845Z,93.50
2019-05-20T04:34:32.975Z,93.50
2019-05-20T04:37:02.440Z,93.60
2019-05-20T04:39:31.975Z,93.50
2019-05-20T04:42:01.377Z,93.40
2019-05-20T04:44:30.839Z,93.50
2019-05-20T04:47:07.567Z,93.40
2019-05-20T04:49:37.081Z,93.30
2019-05-20T04:52:06.572Z,93.30
2019-05-20T04:54:36.022Z,93.20
2019-05-20T04:57:05.482Z,93.20
2019-05-20T04:59:34.956Z,93.00
2019-05-20T05:02:04.410Z,93.10
2019-05-20T05:04:33.878Z,93.10
2019-05-20T05:07:03.384Z,93.00
2019-05-20T05:09:32.842Z,93.20
2019-05-20T05:12:03.832Z,93.00
2019-05-20T05:14:33.541Z,93.00
2019-05-20T05:17:03.061Z,92.90
2019-05-20T05:19:32.577Z,92.80
2019-05-20T05:22:02.726Z,92.30
2019-05-20T05:24:32.238Z,91.90
2019-05-20T05:27:03.259Z,92.00
2019-05-20T05:29:33.931Z,92.00
2019-05-20T05:32:03.414Z,91.80
2019-05-20T05:34:32.945Z,91.80
2019-05-20T05:37:02.410Z,91.70
2019-05-20T05:39:31.916Z,91.40
2019-05-20T05:42:01.439Z,91.30
2019-05-20T05:44:30.920Z,91.60
2019-05-20T05:47:03.366Z,91.00
2019-05-20T05:49:32.859Z,91.00
2019-05-20T05:52:02.305Z,90.80
2019-05-20T05:54:33.295Z,90.80
2019-05-20T05:57:02.770Z,90.80
2019-05-20T05:59:32.216Z,90.60
2019-05-20T06:02:01.769Z,90.50
2019-05-20T06:04:32.826Z,90.60
2019-05-20T06:07:02.940Z,90.60
2019-05-20T06:09:34.052Z,90.60
2019-05-20T06:12:03.499Z,90.50
2019-05-20T06:14:45.337Z,90.50
2019-05-20T06:17:16.247Z,90.60
2019-05-20T06:19:45.716Z,90.60
2019-05-20T06:22:16.445Z,90.80
2019-05-20T06:24:45.904Z,90.70
2019-05-20T06:27:16.453Z,90.80
2019-05-20T06:29:45.910Z,90.60
2019-05-20T06:32:15.673Z,90.60
2019-05-20T06:34:45.329Z,90.40
2019-05-20T06:37:22.807Z,90.20
2019-05-20T06:39:52.287Z,90.40
2019-05-20T06:42:24.106Z,90.40
2019-05-20T06:44:57.203Z,90.40
2019-05-20T06:47:26.266Z,90.40
2019-05-20T06:49:55.893Z,90.20
2019-05-20T06:52:35.415Z,90.00
2019-05-20T06:54:57.797Z,90.00
2019-05-20T06:57:28.633Z,89.80
2019-05-20T06:59:59.546Z,89.50
2019-05-20T07:02:29.443Z,89.50
2019-05-20T07:04:58.877Z,89.40
2019-05-20T07:07:29.846Z,89.30
2019-05-20T07:09:59.306Z,88.90
2019-05-20T07:12:40.627Z,89.10
2019-05-20T07:15:00.131Z,88.40
2019-05-20T07:17:31.661Z,88.80
2019-05-20T07:20:13.038Z,88.90
2019-05-20T07:22:55.442Z,88.70
2019-05-20T07:25:15.234Z,88.40
2019-05-20T07:27:44.918Z,87.80
2019-05-20T07:30:16.611Z,87.80
2019-05-20T07:32:46.109Z,88.40
2019-05-20T07:35:29.388Z,88.80
2019-05-20T07:37:46.871Z,88.80
2019-05-20T07:40:19.437Z,88.80
2019-05-20T07:42:50.997Z,89.20
2019-05-20T07:45:20.476Z,89.20
2019-05-20T07:47:50.045Z,88.80
2019-05-20T07:50:19.838Z,88.70
2019-05-20T07:52:49.752Z,88.30
2019-05-20T07:55:19.372Z,88.20
2019-05-20T07:57:52.122Z,87.50
2019-05-20T08:00:21.752Z,87.50
2019-05-20T08:02:51.523Z,87.60
2019-05-20T08:05:20.978Z,87.40
2019-05-20T08:07:52.697Z,87.70
2019-05-20T08:10:22.152Z,86.60
2019-05-20T08:12:51.748Z,86.60
2019-05-20T08:15:52.592Z,86.80
2019-05-20T08:18:22.173Z,87.20
2019-05-20T08:20:51.640Z,87.70
2019-05-20T08:23:21.139Z,88.30
2019-05-20T08:25:50.565Z,88.30
2019-05-20T08:28:27.829Z,88.30
2019-05-20T08:30:57.420Z,88.30
2019-05-20T08:33:26.942Z,87.50
2019-05-20T08:35:56.481Z,87.30
2019-05-20T08:38:26.998Z,87.10
2019-05-20T08:40:56.481Z,86.00
2019-05-20T08:43:25.920Z,86.70
2019-05-20T08:45:55.460Z,86.90
2019-05-20T08:48:26.469Z,86.70
2019-05-20T08:50:55.996Z,86.80
2019-05-20T08:53:29.132Z,87.10
2019-05-20T08:55:58.862Z,87.20
2019-05-20T08:58:28.767Z,86.50
2019-05-20T09:00:58.231Z,86.10
2019-05-20T09:03:30.379Z,86.30
2019-05-20T09:05:59.036Z,86.90
2019-05-20T09:08:28.553Z,86.80
2019-05-20T09:10:59.099Z,86.80
2019-05-20T09:13:28.843Z,87.00
2019-05-20T09:16:13.030Z,86.70
2019-05-20T09:18:41.800Z,86.30
2019-05-20T09:21:11.487Z,86.30
2019-05-20T09:23:41.111Z,86.00
2019-05-20T09:26:10.615Z,86.20
2019-05-20T09:28:40.162Z,86.70
2019-05-20T09:31:29.758Z,86.10
2019-05-20T09:34:04.828Z,86.50
2019-05-20T09:36:36.298Z,86.30
2019-05-20T09:39:07.605Z,86.60
2019-05-20T09:41:44.259Z,86.50
2019-05-20T09:44:13.783Z,86.60
2019-05-20T09:46:43.314Z,86.90
2019-05-20T09:49:12.795Z,86.70
2019-05-20T09:51:42.211Z,86.50
2019-05-20T09:54:11.666Z,86.30
2019-05-20T09:56:44.544Z,86.60
2019-05-20T09:59:16.324Z,86.60
2019-05-20T10:01:45.227Z,85.90
2019-05-20T10:04:14.687Z,86.20
2019-05-20T10:06:44.170Z,86.40
2019-05-20T10:09:13.628Z,86.60
2019-05-20T10:11:43.646Z,87.00
2019-05-20T10:14:14.243Z,87.20
2019-05-20T10:16:44.850Z,87.10
2019-05-20T10:19:14.312Z,87.30
2019-05-20T10:21:43.776Z,87.20
2019-05-20T10:24:13.762Z,87.40
2019-05-20T10:26:43.246Z,87.50
2019-05-20T10:29:45.543Z,87.70
2019-05-20T10:32:14.987Z,87.60
2019-05-20T10:34:44.456Z,87.70
2019-05-20T10:37:13.921Z,87.70
2019-05-20T10:39:43.360Z,88.20
2019-05-20T10:42:13.595Z,88.60
2019-05-20T10:44:45.812Z,88.50
2019-05-20T10:47:17.898Z,88.40
2019-05-20T10:49:48.413Z,88.20
2019-05-20T10:52:20.390Z,88.30
2019-05-20T10:54:54.485Z,88.30
2019-05-20T10:57:25.827Z,88.20
2019-05-20T10:59:55.545Z,87.50
2019-05-20T11:02:25.178Z,88.10
2019-05-20T11:04:54.665Z,88.30
2019-05-20T11:07:26.064Z,88.30
2019-05-20T11:09:55.867Z,87.90
2019-05-20T11:12:26.378Z,87.90
2019-05-20T11:14:56.631Z,87.80
2019-05-20T11:17:26.087Z,87.90
2019-05-20T11:19:55.567Z,88.10
2019-05-20T11:22:25.041Z,88.10
2019-05-20T11:24:54.510Z,88.40
2019-05-20T11:27:23.970Z,88.60
2019-05-20T11:29:53.471Z,88.50
2019-05-20T11:32:22.887Z,88.20
2019-05-20T11:34:52.352Z,88.50
2019-05-20T11:37:21.810Z,88.60
2019-05-20T11:39:51.262Z,88.20
2019-05-20T11:42:26.085Z,88.30
2019-05-20T11:44:55.547Z,87.90
2019-05-20T11:47:25.021Z,88.10
2019-05-20T11:49:54.484Z,88.10
2019-05-20T11:52:23.939Z,88.30
2019-05-20T11:54:53.374Z,87.60
2019-05-20T11:57:22.874Z,87.30
2019-05-20T11:59:52.362Z,87.00
2019-05-20T12:02:21.826Z,86.60
2019-05-20T12:04:51.272Z,86.80
2019-05-20T12:07:20.837Z,86.60
2019-05-20T12:09:50.565Z,86.30
2019-05-20T12:12:20.103Z,86.10
2019-05-20T12:14:49.631Z,85.70
2019-05-20T12:17:19.146Z,86.00
2019-05-20T12:19:48.595Z,86.80
2019-05-20T12:22:18.080Z,87.40
2019-05-20T12:24:47.529Z,87.50
2019-05-20T12:27:20.075Z,87.60
2019-05-20T12:29:49.751Z,87.20
2019-05-20T12:32:19.223Z,87.30
2019-05-20T12:34:50.040Z,86.90
2019-05-20T12:37:19.562Z,86.30
2019-05-20T12:40:05.530Z,86.80
2019-05-20T12:42:20.478Z,85.70
2019-05-20T12:44:49.967Z,85.60
2019-05-20T12:47:20.927Z,85.10
2019-05-20T12:49:50.451Z,85.70
2019-05-20T12:52:19.911Z,83.80
2019-05-20T12:55:05.863Z,83.10
2019-05-20T12:57:20.556Z,82.80
2019-05-20T12:59:50.105Z,82.40
2019-05-20T13:02:20.501Z,82.20
2019-05-20T13:04:49.998Z,82.20
2019-05-20T13:07:19.470Z,81.50
2019-05-20T13:09:48.953Z,81.10
2019-05-20T13:12:18.399Z,80.70
2019-05-20T13:14:48.536Z,80.70
2019-05-20T13:17:18.037Z,80.50
2019-05-20T13:19:47.508Z,79.80
2019-05-20T13:22:17.027Z,81.50
2019-05-20T13:24:46.511Z,80.90
2019-05-20T13:27:15.983Z,80.70
2019-05-20T13:29:45.471Z,79.80
2019-05-20T13:32:14.969Z,79.40
2019-05-20T13:34:44.503Z,78.60
2019-05-20T13:37:13.959Z,78.60
2019-05-20T13:39:43.456Z,78.60
2019-05-20T13:42:12.922Z,78.80
2019-05-20T13:44:43.768Z,78.90
2019-05-20T13:47:34.362Z,79.50
2019-05-20T13:50:09.905Z,79.60
2019-05-20T13:52:39.350Z,79.50
2019-05-20T13:55:09.965Z,79.00
2019-05-20T13:57:39.569Z,78.30
2019-05-20T14:00:09.786Z,78.30
2019-05-20T14:02:39.328Z,78.20
2019-05-20T14:05:09.595Z,78.50
2019-05-20T14:07:39.052Z,79.00
2019-05-20T14:10:08.935Z,78.90
2019-05-20T14:12:57.738Z,78.40
2019-05-20T14:15:27.362Z,78.40
2019-05-20T14:17:57.460Z,78.30
2019-05-20T14:20:27.043Z,78.60
2019-05-20T14:23:03.346Z,78.80
2019-05-20T14:25:32.798Z,78.90
2019-05-20T14:28:08.406Z,78.90
2019-05-20T14:30:37.896Z,79.20
2019-05-20T14:33:11.183Z,79.20
2019-05-20T14:35:43.294Z,79.40
2019-05-20T14:38:12.729Z,79.80
2019-05-20T14:40:42.324Z,79.60
2019-05-20T14:43:11.879Z,79.60
2019-05-20T14:45:41.637Z,79.80
2019-05-20T14:48:11.184Z,80.00
2019-05-20T14:50:40.611Z,79.90
2019-05-20T14:53:11.836Z,80.40
2019-05-20T14:55:42.833Z,80.80
2019-05-20T14:58:12.523Z,81.50
2019-05-20T15:00:41.995Z,81.70
2019-05-20T15:03:11.464Z,81.80
2019-05-20T15:05:41.113Z,81.80
2019-05-20T15:08:10.972Z,82.10
2019-05-20T15:10:40.442Z,82.40
2019-05-20T15:13:13.550Z,82.50
2019-05-20T15:15:43.084Z,82.50
2019-05-20T15:18:12.581Z,82.70
2019-05-20T15:20:42.113Z,82.90
2019-05-20T15:23:11.576Z,82.90
2019-05-20T15:25:41.099Z,83.20
2019-05-20T15:28:11.809Z,84.00
2019-05-20T15:30:41.249Z,84.40
2019-05-20T15:33:10.851Z,84.80
2019-05-20T15:35:40.483Z,85.00
2019-05-20T15:38:10.025Z,85.20
2019-05-20T15:40:39.600Z,85.30
2019-05-20T15:43:09.057Z,84.70
2019-05-20T15:45:38.619Z,85.20
2019-05-20T15:48:08.101Z,85.30
2019-05-20T15:50:37.627Z,84.30
2019-05-20T15:53:11.325Z,83.80
2019-05-20T15:55:38.532Z,84.40
2019-05-20T15:58:07.939Z,84.90
2019-05-20T16:00:37.424Z,84.60
2019-05-20T16:03:22.920Z,84.50
2019-05-20T16:05:54.053Z,84.60
2019-05-20T16:08:23.607Z,84.80
2019-05-20T16:10:55.023Z,85.10
2019-05-20T16:13:24.656Z,85.20
2019-05-20T16:15:54.202Z,86.00
2019-05-20T16:18:23.648Z,86.80
2019-05-20T16:20:53.439Z,87.60
2019-05-20T16:23:23.894Z,89.00
2019-05-20T16:25:53.465Z,90.00
2019-05-20T16:28:22.918Z,90.50
2019-05-20T16:30:52.473Z,90.50
2019-05-20T16:33:22.000Z,90.60
2019-05-20T16:35:51.708Z,90.80
2019-05-20T16:38:21.448Z,91.20
2019-05-20T16:40:51.072Z,91.00
2019-05-20T16:43:21.724Z,91.00
2019-05-20T16:45:51.185Z,90.70
2019-05-20T16:48:20.692Z,91.00
2019-05-20T16:50:50.178Z,91.00
2019-05-20T16:53:19.712Z,91.20
2019-05-20T16:55:49.184Z,91.30
2019-05-20T16:58:18.732Z,91.40
2019-05-20T17:00:48.372Z,91.30
2019-05-20T17:03:24.393Z,91.30
2019-05-20T17:05:53.844Z,91.10
2019-05-20T17:08:23.450Z,91.20
2019-05-20T17:10:52.959Z,91.20
2019-05-20T17:13:22.412Z,91.30
2019-05-20T17:15:52.990Z,91.40
2019-05-20T17:18:23.645Z,91.30
2019-05-20T17:20:53.123Z,91.30
2019-05-20T17:23:25.506Z,91.50
2019-05-20T17:25:58.728Z,91.50
2019-05-20T17:28:34.231Z,91.20
2019-05-20T17:31:03.759Z,91.30
2019-05-20T17:33:33.445Z,91.50
2019-05-20T17:36:03.338Z,91.70
2019-05-20T17:38:32.875Z,91.90
2019-05-20T17:41:03.062Z,92.30
2019-05-20T17:43:32.768Z,92.30
2019-05-20T17:46:02.355Z,92.70
2019-05-20T17:48:31.957Z,93.00
2019-05-20T17:51:01.444Z,93.30
2019-05-20T17:53:32.190Z,92.90
2019-05-20T17:56:01.623Z,93.10
2019-05-20T17:58:31.130Z,92.70
2019-05-20T18:01:13.625Z,92.90
2019-05-20T18:03:31.755Z,92.90
2019-05-20T18:06:01.298Z,93.10
2019-05-20T18:08:33.488Z,93.40
2019-05-20T18:11:02.973Z,93.60
2019-05-20T18:13:32.415Z,93.40
2019-05-20T18:16:02.274Z,93.70
2019-05-20T18:18:31.733Z,93.30
2019-05-20T18:21:01.259Z,93.60
2019-05-20T18:23:30.798Z,93.60
2019-05-20T18:26:03.319Z,93.80
2019-05-20T18:28:31.335Z,93.50
2019-05-20T18:31:01.851Z,93.60
2019-05-20T18:33:31.291Z,93.60
2019-05-20T18:36:00.818Z,93.50
2019-05-20T18:38:30.458Z,93.40
2019-05-20T18:40:59.900Z,93.40
2019-05-20T18:43:29.491Z,93.30
2019-05-20T18:46:00.591Z,93.60
2019-05-20T18:48:32.467Z,93.50
2019-05-20T18:51:02.025Z,92.90
2019-05-20T18:53:31.693Z,93.00
2019-05-20T18:56:01.180Z,93.10
2019-05-20T18:58:34.113Z,93.10
2019-05-20T19:01:05.304Z,93.40
2019-05-20T19:03:34.889Z,93.40
2019-05-20T19:06:04.419Z,93.20
2019-05-20T19:08:35.038Z,93.30
2019-05-20T19:11:04.647Z,93.30
2019-05-20T19:13:34.112Z,93.60
2019-05-20T19:16:03.804Z,93.80
2019-05-20T19:18:33.299Z,94.00
2019-05-20T19:21:02.767Z,94.10
2019-05-20T19:23:32.218Z,94.10
2019-05-20T19:26:01.697Z,94.20
2019-05-20T19:28:31.161Z,94.00
2019-05-20T19:31:02.925Z,94.10
2019-05-20T19:33:32.469Z,94.00
2019-05-20T19:36:02.061Z,94.00
2019-05-20T19:38:34.988Z,94.00
2019-05-20T19:41:04.647Z,94.00
2019-05-20T19:43:34.199Z,94.00
2019-05-20T19:46:03.763Z,94.30
2019-05-20T19:48:33.312Z,94.40
2019-05-20T19:51:02.975Z,94.40
2019-05-20T19:53:33.488Z,94.40
2019-05-20T19:56:03.062Z,94.20
2019-05-20T19:58:32.678Z,94.80
2019-05-20T20:01:02.134Z,94.30
2019-05-20T20:03:35.983Z,94.10
2019-05-20T20:06:05.524Z,94.10
2019-05-20T20:08:38.623Z,94.10
2019-05-20T20:11:08.217Z,94.00
2019-05-20T20:13:37.673Z,94.00
2019-05-20T20:16:08.268Z,94.10
2019-05-20T20:18:37.798Z,94.00
2019-05-20T20:21:07.467Z,93.90
2019-05-20T20:23:37.149Z,94.00
2019-05-20T20:26:06.580Z,94.10
2019-05-20T20:28:37.291Z,94.00
2019-05-20T20:31:06.667Z,93.90
2019-05-20T20:33:36.267Z,94.00
2019-05-20T20:36:05.724Z,94.00
2019-05-20T20:38:35.754Z,94.20
2019-05-20T20:41:08.658Z,94.40
2019-05-20T20:43:41.916Z,94.60
2019-05-20T20:46:11.516Z,94.70
2019-05-20T20:48:40.983Z,94.60
2019-05-20T20:51:10.436Z,94.40
2019-05-20T20:53:39.893Z,94.30
2019-05-20T20:56:24.199Z,94.40
2019-05-20T20:58:40.555Z,94.30
2019-05-20T21:01:10.525Z,94.40
2019-05-20T21:03:41.175Z,94.50
2019-05-20T21:06:11.247Z,94.50
2019-05-20T21:08:40.684Z,94.50
2019-05-20T21:11:10.234Z,94.00
2019-05-20T21:13:39.700Z,94.20
2019-05-20T21:16:09.145Z,94.20
2019-05-20T21:18:38.692Z,94.30
2019-05-20T21:21:09.118Z,94.20
2019-05-20T21:23:38.871Z,94.10
2019-05-20T21:26:08.480Z,94.10
2019-05-20T21:28:37.935Z,94.10
2019-05-20T21:31:07.373Z,94.20
2019-05-20T21:33:37.426Z,94.20
2019-05-20T21:36:07.237Z,94.20
2019-05-20T21:38:37.294Z,94.30
2019-05-20T21:41:06.774Z,94.50
2019-05-20T21:43:36.219Z,94.50
2019-05-20T21:46:05.686Z,94.70
2019-05-20T21:48:36.301Z,94.70
2019-05-20T21:51:05.895Z,94.80
2019-05-20T21:53:35.390Z,95.00
2019-05-20T21:56:04.879Z,95.00
2019-05-20T21:58:34.895Z,95.00
2019-05-20T22:01:05.251Z,95.00
2019-05-20T22:03:38.415Z,95.20
2019-05-20T22:06:07.836Z,95.00
2019-05-20T22:08:37.283Z,95.00
2019-05-20T22:11:06.772Z,95.10
2019-05-20T22:13:36.621Z,95.20
2019-05-20T22:16:06.149Z,95.30
2019-05-20T22:18:35.634Z,95.40
2019-05-20T22:21:06.231Z,95.60
2019-05-20T22:23:41.763Z,95.60
2019-05-20T22:26:12.889Z,95.60
2019-05-20T22:28:42.378Z,95.50
2019-05-20T22:31:11.859Z,95.60
2019-05-20T22:33:42.740Z,95.60
2019-05-20T22:36:13.575Z,95.50
2019-05-20T22:38:43.023Z,95.50
2019-05-20T22:41:13.910Z,95.50
2019-05-20T22:43:44.953Z,95.40
2019-05-20T22:46:14.538Z,95.40
2019-05-20T22:48:44.035Z,95.50
2019-05-20T22:51:13.490Z,95.40
2019-05-20T22:53:42.962Z,95.30
2019-05-20T22:56:12.413Z,95.40
2019-05-20T22:58:42.138Z,95.50
2019-05-20T23:01:11.679Z,95.40
2019-05-20T23:03:55.383Z,95.40
2019-05-20T23:06:12.289Z,95.60
2019-05-20T23:08:41.770Z,95.80
2019-05-20T23:11:11.283Z,95.80
2019-05-20T23:13:40.726Z,95.70
2019-05-20T23:16:10.179Z,95.60
2019-05-20T23:18:39.708Z,95.80
2019-05-20T23:21:09.222Z,96.00
2019-05-20T23:23:38.688Z,96.40
2019-05-20T23:26:08.150Z,96.60
2019-05-20T23:28:37.623Z,96.40
2019-05-20T23:31:07.069Z,96.20
2019-05-20T23:33:36.530Z,96.20
2019-05-20T23:36:05.996Z,96.00
2019-05-20T23:38:35.449Z,95.90
2019-05-20T23:41:04.843Z,96.10
2019-05-20T23:43:34.305Z,96.30
2019-05-20T23:46:03.863Z,96.60
2019-05-20T23:48:33.315Z,96.30
2019-05-20T23:51:02.782Z,96.20
2019-05-20T23:53:32.285Z,96.40
2019-05-20T23:56:01.791Z,96.40
2019-05-20T23:58:31.270Z,96.30
